sensor_id;sensor_type;location;lat;lon;timestamp;pressure;altitude;pressure_sealevel;temperature;humidity
30819;BME280;17546;42.674;23.284;2023-02-26T00:00:27;93526.28;;;20.40;27.24
30819;BME280;17546;42.674;23.284;2023-02-26T00:02:53;93525.56;;;20.59;26.94
30819;BME280;17546;42.674;23.284;2023-02-26T00:05:19;93524.81;;;20.59;26.94
30819;BME280;17546;42.674;23.284;2023-02-26T00:07:44;93533.16;;;19.91;26.50
30819;BME280;17546;42.674;23.284;2023-02-26T00:10:11;93541.06;;;20.12;26.73
30819;BME280;17546;42.674;23.284;2023-02-26T00:12:37;93528.63;;;20.34;27.31
30819;BME280;17546;42.674;23.284;2023-02-26T00:15:04;93509.53;;;20.23;27.20
30819;BME280;17546;42.674;23.284;2023-02-26T00:20:13;93511.75;;;19.95;26.96
30819;BME280;17546;42.674;23.284;2023-02-26T00:22:41;93500.09;;;19.62;26.88
30819;BME280;17546;42.674;23.284;2023-02-26T00:25:07;93485.25;;;19.98;26.75
30819;BME280;17546;42.674;23.284;2023-02-26T00:27:33;93481.50;;;19.67;27.13
30819;BME280;17546;42.674;23.284;2023-02-26T00:29:58;93488.56;;;20.24;27.29
30819;BME280;17546;42.674;23.284;2023-02-26T00:32:24;93493.72;;;19.52;27.47
30819;BME280;17546;42.674;23.284;2023-02-26T00:34:50;93482.56;;;19.34;27.08
30819;BME280;17546;42.674;23.284;2023-02-26T00:42:43;93466.44;;;19.72;27.25
30819;BME280;17546;42.674;23.284;2023-02-26T00:45:10;93486.81;;;19.63;26.88
30819;BME280;17546;42.674;23.284;2023-02-26T00:48:29;93502.56;;;19.85;27.08
30819;BME280;17546;42.674;23.284;2023-02-26T00:50:30;93467.16;;;19.26;27.39
30819;BME280;17546;42.674;23.284;2023-02-26T00:55:24;93465.59;;;20.18;26.43
30819;BME280;17546;42.674;23.284;2023-02-26T00:57:49;93495.22;;;20.58;26.02
30819;BME280;17546;42.674;23.284;2023-02-26T01:00:15;93475.50;;;19.99;26.47
30819;BME280;17546;42.674;23.284;2023-02-26T01:02:42;93489.69;;;20.01;26.66
30819;BME280;17546;42.674;23.284;2023-02-26T01:05:12;93482.28;;;19.40;26.84
30819;BME280;17546;42.674;23.284;2023-02-26T01:07:51;93461.16;;;19.39;27.17
30819;BME280;17546;42.674;23.284;2023-02-26T01:10:19;93448.22;;;19.16;26.55
30819;BME280;17546;42.674;23.284;2023-02-26T01:12:45;93473.19;;;19.69;26.57
30819;BME280;17546;42.674;23.284;2023-02-26T01:15:13;93488.50;;;19.85;26.59
30819;BME280;17546;42.674;23.284;2023-02-26T01:17:46;93462.44;;;19.28;27.18
30819;BME280;17546;42.674;23.284;2023-02-26T01:20:17;93378.63;;;19.05;27.46
30819;BME280;17546;42.674;23.284;2023-02-26T01:25:49;93464.25;;;20.38;25.85
30819;BME280;17546;42.674;23.284;2023-02-26T01:28:19;93435.69;;;19.74;27.01
30819;BME280;17546;42.674;23.284;2023-02-26T01:30:44;93443.41;;;19.83;27.32
30819;BME280;17546;42.674;23.284;2023-02-26T01:33:16;93421.06;;;20.14;27.07
30819;BME280;17546;42.674;23.284;2023-02-26T01:35:57;93444.88;;;20.23;26.54
30819;BME280;17546;42.674;23.284;2023-02-26T01:41:16;93415.03;;;19.23;27.98
30819;BME280;17546;42.674;23.284;2023-02-26T01:44:08;93438.38;;;20.30;26.92
30819;BME280;17546;42.674;23.284;2023-02-26T01:49:31;93402.81;;;19.47;27.67
30819;BME280;17546;42.674;23.284;2023-02-26T01:52:01;93415.09;;;19.61;27.42
30819;BME280;17546;42.674;23.284;2023-02-26T01:57:08;93417.66;;;20.35;26.62
30819;BME280;17546;42.674;23.284;2023-02-26T01:59:38;93390.31;;;19.97;26.96
30819;BME280;17546;42.674;23.284;2023-02-26T02:02:07;93402.88;;;19.86;26.98
30819;BME280;17546;42.674;23.284;2023-02-26T02:04:34;93406.13;;;19.16;27.17
30819;BME280;17546;42.674;23.284;2023-02-26T02:07:00;93399.63;;;19.80;26.55
30819;BME280;17546;42.674;23.284;2023-02-26T02:09:26;93386.84;;;19.50;26.64
30819;BME280;17546;42.674;23.284;2023-02-26T02:15:06;93378.41;;;19.40;27.02
30819;BME280;17546;42.674;23.284;2023-02-26T02:31:08;93372.25;;;18.95;27.26
30819;BME280;17546;42.674;23.284;2023-02-26T02:33:46;93359.38;;;19.58;26.36
30819;BME280;17546;42.674;23.284;2023-02-26T02:36:41;93372.91;;;19.23;26.83
30819;BME280;17546;42.674;23.284;2023-02-26T02:39:16;93370.53;;;19.19;26.80
30819;BME280;17546;42.674;23.284;2023-02-26T02:42:02;93430.75;;;19.45;26.42
30819;BME280;17546;42.674;23.284;2023-02-26T02:44:33;93371.28;;;18.83;26.83
30819;BME280;17546;42.674;23.284;2023-02-26T02:47:00;93413.06;;;19.15;26.90
30819;BME280;17546;42.674;23.284;2023-02-26T02:49:32;93362.84;;;19.19;26.61
30819;BME280;17546;42.674;23.284;2023-02-26T02:52:06;93422.16;;;19.43;26.45
30819;BME280;17546;42.674;23.284;2023-02-26T02:54:48;93402.19;;;19.29;26.89
30819;BME280;17546;42.674;23.284;2023-02-26T02:57:22;93404.06;;;19.27;26.22
30819;BME280;17546;42.674;23.284;2023-02-26T02:59:57;93397.94;;;19.38;26.43
30819;BME280;17546;42.674;23.284;2023-02-26T03:04:52;93411.41;;;18.21;27.80
30819;BME280;17546;42.674;23.284;2023-02-26T03:07:18;93424.22;;;18.96;27.26
30819;BME280;17546;42.674;23.284;2023-02-26T03:09:43;93402.63;;;19.26;26.80
30819;BME280;17546;42.674;23.284;2023-02-26T03:12:09;93404.66;;;19.72;26.17
30819;BME280;17546;42.674;23.284;2023-02-26T03:14:35;93410.84;;;19.14;25.88
30819;BME280;17546;42.674;23.284;2023-02-26T03:22:38;93392.47;;;19.59;25.60
30819;BME280;17546;42.674;23.284;2023-02-26T03:25:15;93404.38;;;19.31;26.00
30819;BME280;17546;42.674;23.284;2023-02-26T03:30:25;93395.66;;;18.80;26.67
30819;BME280;17546;42.674;23.284;2023-02-26T03:35:32;93402.81;;;19.47;26.09
30819;BME280;17546;42.674;23.284;2023-02-26T03:38:03;93419.88;;;19.88;25.87
30819;BME280;17546;42.674;23.284;2023-02-26T03:40:36;93410.56;;;19.76;26.00
30819;BME280;17546;42.674;23.284;2023-02-26T03:44:00;93404.66;;;18.78;26.83
30819;BME280;17546;42.674;23.284;2023-02-26T03:46:22;93393.25;;;19.13;26.83
30819;BME280;17546;42.674;23.284;2023-02-26T03:48:50;93399.97;;;19.28;26.44
30819;BME280;17546;42.674;23.284;2023-02-26T03:51:17;93396.06;;;19.70;26.35
30819;BME280;17546;42.674;23.284;2023-02-26T03:58:57;93392.44;;;19.40;26.82
30819;BME280;17546;42.674;23.284;2023-02-26T04:01:26;93384.03;;;19.50;26.52
30819;BME280;17546;42.674;23.284;2023-02-26T04:04:17;93398.44;;;20.02;26.27
30819;BME280;17546;42.674;23.284;2023-02-26T04:06:45;93386.03;;;19.76;26.46
30819;BME280;17546;42.674;23.284;2023-02-26T04:09:11;93391.34;;;19.82;26.22
30819;BME280;17546;42.674;23.284;2023-02-26T04:11:37;93415.81;;;19.62;26.76
30819;BME280;17546;42.674;23.284;2023-02-26T04:14:03;93372.88;;;18.76;27.12
30819;BME280;17546;42.674;23.284;2023-02-26T04:16:29;93371.78;;;18.89;26.96
30819;BME280;17546;42.674;23.284;2023-02-26T04:18:54;93380.34;;;19.47;26.41
30819;BME280;17546;42.674;23.284;2023-02-26T04:21:21;93398.41;;;19.64;26.04
30819;BME280;17546;42.674;23.284;2023-02-26T04:23:47;93377.66;;;19.39;26.80
30819;BME280;17546;42.674;23.284;2023-02-26T04:26:12;93380.31;;;19.28;26.51
30819;BME280;17546;42.674;23.284;2023-02-26T04:28:38;93383.50;;;19.80;25.99
30819;BME280;17546;42.674;23.284;2023-02-26T04:31:05;93354.31;;;19.27;26.49
30819;BME280;17546;42.674;23.284;2023-02-26T04:33:31;93337.59;;;19.10;26.89
30819;BME280;17546;42.674;23.284;2023-02-26T04:35:58;93335.41;;;19.28;26.50
30819;BME280;17546;42.674;23.284;2023-02-26T04:38:24;93350.84;;;18.99;26.71
30819;BME280;17546;42.674;23.284;2023-02-26T04:40:49;93348.94;;;18.65;27.15
30819;BME280;17546;42.674;23.284;2023-02-26T04:43:15;93333.00;;;19.14;26.22
30819;BME280;17546;42.674;23.284;2023-02-26T04:45:41;93346.47;;;19.35;26.16
30819;BME280;17546;42.674;23.284;2023-02-26T04:48:09;93369.41;;;18.85;26.99
30819;BME280;17546;42.674;23.284;2023-02-26T04:50:34;93339.66;;;19.09;25.90
30819;BME280;17546;42.674;23.284;2023-02-26T04:52:59;93346.47;;;19.16;26.08
30819;BME280;17546;42.674;23.284;2023-02-26T04:55:25;93300.72;;;18.40;26.76
30819;BME280;17546;42.674;23.284;2023-02-26T04:57:50;93323.16;;;19.52;25.55
30819;BME280;17546;42.674;23.284;2023-02-26T05:00:17;93311.69;;;18.92;26.13
30819;BME280;17546;42.674;23.284;2023-02-26T05:02:42;93327.72;;;19.57;25.67
30819;BME280;17546;42.674;23.284;2023-02-26T05:05:08;93302.13;;;19.14;25.52
30819;BME280;17546;42.674;23.284;2023-02-26T05:07:33;93294.03;;;19.57;25.35
30819;BME280;17546;42.674;23.284;2023-02-26T05:09:59;93286.03;;;19.05;25.54
30819;BME280;17546;42.674;23.284;2023-02-26T05:12:24;93267.72;;;19.24;25.15
30819;BME280;17546;42.674;23.284;2023-02-26T05:14:50;93265.97;;;19.38;24.95
30819;BME280;17546;42.674;23.284;2023-02-26T05:17:15;93273.16;;;18.92;25.44
30819;BME280;17546;42.674;23.284;2023-02-26T05:19:40;93273.25;;;18.75;25.99
30819;BME280;17546;42.674;23.284;2023-02-26T05:22:07;93266.38;;;19.15;25.42
30819;BME280;17546;42.674;23.284;2023-02-26T05:24:32;93283.84;;;19.52;25.24
30819;BME280;17546;42.674;23.284;2023-02-26T05:26:59;93291.38;;;19.59;25.23
30819;BME280;17546;42.674;23.284;2023-02-26T05:29:24;93292.56;;;19.47;25.21
30819;BME280;17546;42.674;23.284;2023-02-26T05:31:50;93290.34;;;19.35;25.39
30819;BME280;17546;42.674;23.284;2023-02-26T05:34:15;93253.81;;;19.06;25.65
30819;BME280;17546;42.674;23.284;2023-02-26T05:36:41;93272.59;;;19.13;25.53
30819;BME280;17546;42.674;23.284;2023-02-26T05:39:08;93285.41;;;18.97;25.80
30819;BME280;17546;42.674;23.284;2023-02-26T05:41:33;93278.06;;;19.31;25.73
30819;BME280;17546;42.674;23.284;2023-02-26T05:43:59;93268.03;;;19.28;25.61
30819;BME280;17546;42.674;23.284;2023-02-26T05:46:24;93254.88;;;19.01;25.52
30819;BME280;17546;42.674;23.284;2023-02-26T05:48:50;93260.09;;;18.68;26.23
30819;BME280;17546;42.674;23.284;2023-02-26T05:51:15;93242.38;;;18.65;26.13
30819;BME280;17546;42.674;23.284;2023-02-26T05:53:41;93268.75;;;18.99;25.79
30819;BME280;17546;42.674;23.284;2023-02-26T05:56:06;93240.84;;;19.20;25.42
30819;BME280;17546;42.674;23.284;2023-02-26T05:58:32;93232.56;;;19.42;25.20
30819;BME280;17546;42.674;23.284;2023-02-26T06:00:58;93263.84;;;18.99;25.47
30819;BME280;17546;42.674;23.284;2023-02-26T06:03:24;93237.75;;;19.26;24.85
30819;BME280;17546;42.674;23.284;2023-02-26T06:05:50;93271.56;;;19.57;24.64
30819;BME280;17546;42.674;23.284;2023-02-26T06:08:15;93315.28;;;19.12;25.00
30819;BME280;17546;42.674;23.284;2023-02-26T06:10:41;93281.16;;;19.15;24.86
30819;BME280;17546;42.674;23.284;2023-02-26T06:13:07;93278.97;;;19.72;24.58
30819;BME280;17546;42.674;23.284;2023-02-26T06:15:32;93314.00;;;19.61;24.48
30819;BME280;17546;42.674;23.284;2023-02-26T06:17:58;93315.06;;;19.76;24.42
30819;BME280;17546;42.674;23.284;2023-02-26T06:20:23;93297.31;;;19.83;24.33
30819;BME280;17546;42.674;23.284;2023-02-26T06:22:49;93304.69;;;19.88;23.98
30819;BME280;17546;42.674;23.284;2023-02-26T06:25:15;93284.88;;;19.86;23.96
30819;BME280;17546;42.674;23.284;2023-02-26T06:27:40;93296.53;;;20.02;23.85
30819;BME280;17546;42.674;23.284;2023-02-26T06:30:06;93288.00;;;20.41;23.41
30819;BME280;17546;42.674;23.284;2023-02-26T06:32:32;93302.00;;;20.10;23.65
30819;BME280;17546;42.674;23.284;2023-02-26T06:34:58;93321.97;;;20.04;23.80
30819;BME280;17546;42.674;23.284;2023-02-26T06:37:23;93328.91;;;19.35;24.37
30819;BME280;17546;42.674;23.284;2023-02-26T06:39:49;93285.41;;;20.14;23.81
30819;BME280;17546;42.674;23.284;2023-02-26T06:42:14;93279.88;;;20.35;23.35
30819;BME280;17546;42.674;23.284;2023-02-26T06:44:40;93304.06;;;19.99;23.41
30819;BME280;17546;42.674;23.284;2023-02-26T06:47:05;93292.25;;;20.01;23.38
30819;BME280;17546;42.674;23.284;2023-02-26T06:49:32;93284.84;;;20.06;23.39
30819;BME280;17546;42.674;23.284;2023-02-26T06:51:57;93260.78;;;19.83;23.52
30819;BME280;17546;42.674;23.284;2023-02-26T06:54:23;93263.88;;;19.68;23.75
30819;BME280;17546;42.674;23.284;2023-02-26T06:56:48;93290.56;;;20.27;23.04
30819;BME280;17546;42.674;23.284;2023-02-26T06:59:14;93279.41;;;19.98;23.45
30819;BME280;17546;42.674;23.284;2023-02-26T07:01:40;93268.44;;;19.92;23.37
30819;BME280;17546;42.674;23.284;2023-02-26T07:04:05;93288.41;;;20.47;22.87
30819;BME280;17546;42.674;23.284;2023-02-26T07:06:30;93291.06;;;20.04;23.19
30819;BME280;17546;42.674;23.284;2023-02-26T07:08:56;93288.44;;;19.77;23.33
30819;BME280;17546;42.674;23.284;2023-02-26T07:11:22;93278.97;;;19.82;23.56
30819;BME280;17546;42.674;23.284;2023-02-26T07:13:47;93300.13;;;20.43;22.81
30819;BME280;17546;42.674;23.284;2023-02-26T07:16:13;93293.56;;;20.92;22.81
30819;BME280;17546;42.674;23.284;2023-02-26T07:18:38;93286.00;;;20.22;22.82
30819;BME280;17546;42.674;23.284;2023-02-26T07:21:04;93289.66;;;20.75;22.83
30819;BME280;17546;42.674;23.284;2023-02-26T07:23:29;93326.56;;;20.09;22.77
30819;BME280;17546;42.674;23.284;2023-02-26T07:25:55;93282.06;;;20.47;23.12
30819;BME280;17546;42.674;23.284;2023-02-26T07:28:22;93283.53;;;20.07;23.29
30819;BME280;17546;42.674;23.284;2023-02-26T07:30:47;93292.69;;;19.97;23.29
30819;BME280;17546;42.674;23.284;2023-02-26T07:33:13;93277.41;;;20.71;22.92
30819;BME280;17546;42.674;23.284;2023-02-26T07:35:38;93294.72;;;20.67;22.88
30819;BME280;17546;42.674;23.284;2023-02-26T07:38:04;93306.69;;;20.77;22.47
30819;BME280;17546;42.674;23.284;2023-02-26T07:40:30;93276.72;;;21.13;22.55
30819;BME280;17546;42.674;23.284;2023-02-26T07:42:55;93296.44;;;21.35;22.36
30819;BME280;17546;42.674;23.284;2023-02-26T07:45:22;93272.41;;;20.50;22.68
30819;BME280;17546;42.674;23.284;2023-02-26T07:47:48;93288.78;;;21.25;22.32
30819;BME280;17546;42.674;23.284;2023-02-26T07:50:14;93297.06;;;21.55;22.15
30819;BME280;17546;42.674;23.284;2023-02-26T07:52:40;93263.22;;;20.90;22.43
30819;BME280;17546;42.674;23.284;2023-02-26T07:55:06;93290.72;;;21.01;22.53
30819;BME280;17546;42.674;23.284;2023-02-26T07:57:35;93281.09;;;21.48;22.15
30819;BME280;17546;42.674;23.284;2023-02-26T08:00:01;93297.50;;;21.51;21.70
30819;BME280;17546;42.674;23.284;2023-02-26T08:02:28;93288.59;;;21.55;21.68
30819;BME280;17546;42.674;23.284;2023-02-26T08:04:54;93318.69;;;21.31;21.89
30819;BME280;17546;42.674;23.284;2023-02-26T08:07:19;93317.34;;;21.10;22.09
30819;BME280;17546;42.674;23.284;2023-02-26T08:09:45;93311.31;;;21.47;21.71
30819;BME280;17546;42.674;23.284;2023-02-26T08:12:10;93308.00;;;21.08;21.99
30819;BME280;17546;42.674;23.284;2023-02-26T08:14:36;93321.13;;;21.46;21.94
30819;BME280;17546;42.674;23.284;2023-02-26T08:17:01;93312.63;;;21.03;22.26
30819;BME280;17546;42.674;23.284;2023-02-26T08:19:27;93309.72;;;21.44;22.23
30819;BME280;17546;42.674;23.284;2023-02-26T08:21:52;93316.91;;;21.57;22.05
30819;BME280;17546;42.674;23.284;2023-02-26T08:24:20;93303.66;;;21.16;22.19
30819;BME280;17546;42.674;23.284;2023-02-26T08:26:45;93328.56;;;21.41;21.94
30819;BME280;17546;42.674;23.284;2023-02-26T08:29:11;93294.09;;;20.78;22.26
30819;BME280;17546;42.674;23.284;2023-02-26T08:31:36;93316.41;;;21.17;22.12
30819;BME280;17546;42.674;23.284;2023-02-26T08:34:02;93315.69;;;21.60;21.99
30819;BME280;17546;42.674;23.284;2023-02-26T08:36:29;93311.28;;;21.57;21.78
30819;BME280;17546;42.674;23.284;2023-02-26T08:38:54;93330.94;;;22.00;21.81
30819;BME280;17546;42.674;23.284;2023-02-26T08:41:20;93330.88;;;21.23;22.26
30819;BME280;17546;42.674;23.284;2023-02-26T08:43:46;93336.22;;;22.05;22.04
30819;BME280;17546;42.674;23.284;2023-02-26T08:46:11;93362.19;;;22.04;21.73
30819;BME280;17546;42.674;23.284;2023-02-26T08:48:37;93342.25;;;21.78;21.64
30819;BME280;17546;42.674;23.284;2023-02-26T08:51:03;93340.38;;;22.04;21.96
30819;BME280;17546;42.674;23.284;2023-02-26T08:53:28;93341.78;;;21.60;22.21
30819;BME280;17546;42.674;23.284;2023-02-26T08:55:53;93364.53;;;21.53;21.85
30819;BME280;17546;42.674;23.284;2023-02-26T08:58:20;93357.13;;;21.69;21.56
30819;BME280;17546;42.674;23.284;2023-02-26T09:00:46;93338.19;;;21.17;21.88
30819;BME280;17546;42.674;23.284;2023-02-26T09:03:12;93365.75;;;21.40;21.71
30819;BME280;17546;42.674;23.284;2023-02-26T09:05:38;93358.69;;;21.60;21.52
30819;BME280;17546;42.674;23.284;2023-02-26T09:08:05;93350.47;;;21.86;21.41
30819;BME280;17546;42.674;23.284;2023-02-26T09:10:31;93353.69;;;22.14;20.89
30819;BME280;17546;42.674;23.284;2023-02-26T09:12:57;93358.63;;;22.25;21.27
30819;BME280;17546;42.674;23.284;2023-02-26T09:15:22;93380.66;;;22.17;21.03
30819;BME280;17546;42.674;23.284;2023-02-26T09:17:48;93366.34;;;22.69;20.84
30819;BME280;17546;42.674;23.284;2023-02-26T09:20:16;93364.91;;;22.80;20.44
30819;BME280;17546;42.674;23.284;2023-02-26T09:22:41;93323.31;;;22.24;21.31
30819;BME280;17546;42.674;23.284;2023-02-26T09:25:08;93350.81;;;23.04;19.75
30819;BME280;17546;42.674;23.284;2023-02-26T09:27:33;93354.13;;;23.36;20.26
30819;BME280;17546;42.674;23.284;2023-02-26T09:30:00;93361.72;;;22.98;19.57
30819;BME280;17546;42.674;23.284;2023-02-26T09:32:25;93350.63;;;23.61;19.42
30819;BME280;17546;42.674;23.284;2023-02-26T09:34:52;93378.84;;;23.96;19.70
30819;BME280;17546;42.674;23.284;2023-02-26T09:37:18;93351.50;;;24.12;19.33
30819;BME280;17546;42.674;23.284;2023-02-26T09:39:44;93368.13;;;24.32;19.22
30819;BME280;17546;42.674;23.284;2023-02-26T09:44:38;93378.38;;;24.25;19.49
30819;BME280;17546;42.674;23.284;2023-02-26T09:47:26;93350.75;;;24.38;18.77
30819;BME280;17546;42.674;23.284;2023-02-26T09:50:51;93388.25;;;23.51;19.23
30819;BME280;17546;42.674;23.284;2023-02-26T09:52:55;93386.66;;;24.09;18.72
30819;BME280;17546;42.674;23.284;2023-02-26T09:55:29;93382.97;;;24.19;19.32
30819;BME280;17546;42.674;23.284;2023-02-26T09:58:00;93363.69;;;24.80;18.67
30819;BME280;17546;42.674;23.284;2023-02-26T10:00:33;93372.06;;;24.78;18.68
30819;BME280;17546;42.674;23.284;2023-02-26T10:03:45;93377.19;;;25.07;18.95
30819;BME280;17546;42.674;23.284;2023-02-26T10:11:58;93367.03;;;24.63;19.39
30819;BME280;17546;42.674;23.284;2023-02-26T10:14:49;93357.47;;;24.44;19.48
30819;BME280;17546;42.674;23.284;2023-02-26T10:19:48;93367.09;;;24.90;19.17
30819;BME280;17546;42.674;23.284;2023-02-26T10:23:06;93327.50;;;24.39;19.24
30819;BME280;17546;42.674;23.284;2023-02-26T10:25:39;93338.28;;;24.43;19.28
30819;BME280;17546;42.674;23.284;2023-02-26T10:39:55;93316.31;;;24.16;19.58
30819;BME280;17546;42.674;23.284;2023-02-26T10:42:35;93302.84;;;24.02;19.91
30819;BME280;17546;42.674;23.284;2023-02-26T10:48:24;93311.09;;;23.98;20.26
30819;BME280;17546;42.674;23.284;2023-02-26T10:50:48;93308.53;;;24.42;19.95
30819;BME280;17546;42.674;23.284;2023-02-26T10:53:14;93319.47;;;24.22;20.21
30819;BME280;17546;42.674;23.284;2023-02-26T10:55:43;93295.13;;;23.54;20.45
30819;BME280;17546;42.674;23.284;2023-02-26T10:58:17;93310.50;;;23.39;21.47
30819;BME280;17546;42.674;23.284;2023-02-26T11:00:49;93283.28;;;23.20;21.13
30819;BME280;17546;42.674;23.284;2023-02-26T11:05:46;93287.44;;;23.30;21.18
30819;BME280;17546;42.674;23.284;2023-02-26T11:08:27;93290.78;;;22.92;21.58
30819;BME280;17546;42.674;23.284;2023-02-26T11:10:58;93291.44;;;23.51;20.99
30819;BME280;17546;42.674;23.284;2023-02-26T11:13:27;93279.41;;;23.39;21.22
30819;BME280;17546;42.674;23.284;2023-02-26T11:15:57;93282.03;;;23.72;20.95
30819;BME280;17546;42.674;23.284;2023-02-26T11:18:52;93266.97;;;22.71;21.61
30819;BME280;17546;42.674;23.284;2023-02-26T11:21:22;93292.88;;;23.03;21.42
30819;BME280;17546;42.674;23.284;2023-02-26T11:26:34;93278.50;;;23.22;21.68
30819;BME280;17546;42.674;23.284;2023-02-26T11:29:00;93288.28;;;23.21;22.07
30819;BME280;17546;42.674;23.284;2023-02-26T11:31:26;93261.88;;;23.78;21.23
30819;BME280;17546;42.674;23.284;2023-02-26T11:33:59;93302.41;;;22.51;22.31
30819;BME280;17546;42.674;23.284;2023-02-26T11:36:29;93273.50;;;22.17;22.66
30819;BME280;17546;42.674;23.284;2023-02-26T11:39:05;93270.69;;;21.72;23.14
30819;BME280;17546;42.674;23.284;2023-02-26T11:41:36;93271.56;;;22.31;23.11
30819;BME280;17546;42.674;23.284;2023-02-26T11:44:10;93279.41;;;22.21;22.95
30819;BME280;17546;42.674;23.284;2023-02-26T11:46:48;93286.66;;;22.24;23.15
30819;BME280;17546;42.674;23.284;2023-02-26T11:49:16;93276.03;;;22.58;23.07
30819;BME280;17546;42.674;23.284;2023-02-26T11:51:45;93298.13;;;22.49;23.35
30819;BME280;17546;42.674;23.284;2023-02-26T11:54:37;93299.69;;;22.29;23.24
30819;BME280;17546;42.674;23.284;2023-02-26T11:57:19;93323.03;;;22.77;23.05
30819;BME280;17546;42.674;23.284;2023-02-26T11:59:49;93329.16;;;22.61;23.57
30819;BME280;17546;42.674;23.284;2023-02-26T12:02:18;93350.00;;;22.56;23.45
30819;BME280;17546;42.674;23.284;2023-02-26T12:04:47;93383.28;;;22.69;23.55
30819;BME280;17546;42.674;23.284;2023-02-26T12:07:14;93384.63;;;22.68;23.87
30819;BME280;17546;42.674;23.284;2023-02-26T12:09:41;93390.69;;;22.20;23.93
30819;BME280;17546;42.674;23.284;2023-02-26T12:15:08;93405.34;;;22.61;24.48
30819;BME280;17546;42.674;23.284;2023-02-26T12:20:31;93376.66;;;22.77;23.97
30819;BME280;17546;42.674;23.284;2023-02-26T12:26:06;93386.44;;;21.97;25.69
30819;BME280;17546;42.674;23.284;2023-02-26T12:31:48;93403.97;;;23.31;24.76
30819;BME280;17546;42.674;23.284;2023-02-26T12:34:39;93413.38;;;22.43;25.48
30819;BME280;17546;42.674;23.284;2023-02-26T12:37:38;93443.41;;;22.72;24.56
30819;BME280;17546;42.674;23.284;2023-02-26T12:43:32;93428.31;;;21.48;26.45
30819;BME280;17546;42.674;23.284;2023-02-26T12:57:43;93483.09;;;22.10;24.86
30819;BME280;17546;42.674;23.284;2023-02-26T13:00:34;93415.44;;;22.64;23.05
30819;BME280;17546;42.674;23.284;2023-02-26T13:13:56;93480.28;;;21.88;25.57
30819;BME280;17546;42.674;23.284;2023-02-26T13:19:49;93474.25;;;22.25;25.54
30819;BME280;17546;42.674;23.284;2023-02-26T13:22:37;93452.47;;;22.16;25.99
30819;BME280;17546;42.674;23.284;2023-02-26T13:25:16;93455.56;;;22.20;25.91
30819;BME280;17546;42.674;23.284;2023-02-26T13:27:45;93464.78;;;23.20;24.93
30819;BME280;17546;42.674;23.284;2023-02-26T13:32:38;93440.59;;;21.53;26.94
30819;BME280;17546;42.674;23.284;2023-02-26T13:35:12;93454.53;;;22.25;25.82
30819;BME280;17546;42.674;23.284;2023-02-26T13:37:46;93425.63;;;22.36;26.19
30819;BME280;17546;42.674;23.284;2023-02-26T13:40:33;93445.00;;;23.08;25.54
30819;BME280;17546;42.674;23.284;2023-02-26T13:43:15;93415.66;;;23.37;24.85
30819;BME280;17546;42.674;23.284;2023-02-26T13:48:32;93418.75;;;22.18;26.05
30819;BME280;17546;42.674;23.284;2023-02-26T13:51:11;93425.91;;;22.19;25.94
30819;BME280;17546;42.674;23.284;2023-02-26T14:01:27;93414.22;;;22.79;24.59
30819;BME280;17546;42.674;23.284;2023-02-26T14:06:45;93413.19;;;22.63;24.87
30819;BME280;17546;42.674;23.284;2023-02-26T14:24:53;93385.81;;;23.46;23.54
30819;BME280;17546;42.674;23.284;2023-02-26T14:27:22;93434.34;;;22.74;24.45
30819;BME280;17546;42.674;23.284;2023-02-26T14:35:12;93424.63;;;23.22;24.03
30819;BME280;17546;42.674;23.284;2023-02-26T14:37:40;93442.78;;;23.07;24.21
30819;BME280;17546;42.674;23.284;2023-02-26T14:40:13;93414.06;;;22.65;24.32
30819;BME280;17546;42.674;23.284;2023-02-26T14:42:44;93455.78;;;23.00;24.21
30819;BME280;17546;42.674;23.284;2023-02-26T14:47:41;93366.97;;;22.23;24.87
30819;BME280;17546;42.674;23.284;2023-02-26T14:50:13;93453.41;;;21.65;23.73
30819;BME280;17546;42.674;23.284;2023-02-26T14:58:31;93476.44;;;22.81;22.93
30819;BME280;17546;42.674;23.284;2023-02-26T15:01:03;93441.31;;;22.39;23.76
30819;BME280;17546;42.674;23.284;2023-02-26T15:09:22;93447.13;;;21.98;24.01
30819;BME280;17546;42.674;23.284;2023-02-26T15:17:05;93450.59;;;22.52;23.44
30819;BME280;17546;42.674;23.284;2023-02-26T15:25:16;93464.13;;;21.57;24.60
30819;BME280;17546;42.674;23.284;2023-02-26T15:27:43;93504.72;;;22.17;23.94
30819;BME280;17546;42.674;23.284;2023-02-26T15:30:14;93492.88;;;22.08;25.50
30819;BME280;17546;42.674;23.284;2023-02-26T15:32:39;93471.25;;;21.17;26.84
30819;BME280;17546;42.674;23.284;2023-02-26T15:35:17;93511.06;;;21.74;26.37
30819;BME280;17546;42.674;23.284;2023-02-26T15:37:49;93525.66;;;21.10;26.36
30819;BME280;17546;42.674;23.284;2023-02-26T15:40:15;93489.41;;;21.36;26.80
30819;BME280;17546;42.674;23.284;2023-02-26T15:42:42;93504.28;;;21.67;26.94
30819;BME280;17546;42.674;23.284;2023-02-26T15:45:18;93524.56;;;21.97;26.57
30819;BME280;17546;42.674;23.284;2023-02-26T15:47:46;93514.47;;;21.73;27.42
30819;BME280;17546;42.674;23.284;2023-02-26T15:50:15;93532.84;;;21.74;26.51
30819;BME280;17546;42.674;23.284;2023-02-26T15:52:42;93529.88;;;22.03;26.25
30819;BME280;17546;42.674;23.284;2023-02-26T15:55:14;93521.03;;;22.40;25.89
30819;BME280;17546;42.674;23.284;2023-02-26T15:57:41;93543.28;;;22.24;25.96
30819;BME280;17546;42.674;23.284;2023-02-26T16:00:15;93551.41;;;22.30;25.23
30819;BME280;17546;42.674;23.284;2023-02-26T16:02:42;93539.66;;;22.33;25.61
30819;BME280;17546;42.674;23.284;2023-02-26T16:05:11;93524.44;;;21.95;25.81
30819;BME280;17546;42.674;23.284;2023-02-26T16:07:39;93532.38;;;21.46;26.19
30819;BME280;17546;42.674;23.284;2023-02-26T16:10:14;93541.25;;;21.52;26.46
30819;BME280;17546;42.674;23.284;2023-02-26T16:12:41;93547.72;;;21.64;26.19